Time;durP1;ratioP1;P1;durP2;ratioP2;P2;SDS_P1;SDS_P2;PMS_P1;PMS_P2;Temp;Humidity;BMP_temperature;BMP_pressure;BME280_temperature;BME280_humidity;BME280_pressure;Samples;Min_cycle;Max_cycle;Signal;HPM_P1;HPM_P2
2023/01/05 00:00:39;;;;;;;4.65;2.58;;;;;;;-8.70;87.04;100709.09;10493324;28;20036;-74
2023/01/05 00:05:41;;;;;;;4.10;2.60;;;;;;;-8.71;87.05;100700.28;10499748;28;20040;-75
2023/01/05 00:26:54;;;;;;;3.70;2.20;;;;;;;-8.98;87.30;100703.09;10505342;28;20037;-77
2023/01/05 00:31:57;;;;;;;4.40;2.00;;;;;;;-9.03;86.62;100692.88;10527136;28;20067;-75
2023/01/05 00:36:59;;;;;;;4.25;2.30;;;;;;;-9.06;86.72;100695.84;10502978;28;20045;-76
2023/01/05 00:42:01;;;;;;;3.72;2.30;;;;;;;-9.00;87.08;100694.44;10514140;28;20056;-77
2023/01/05 00:47:03;;;;;;;4.55;2.00;;;;;;;-8.93;86.80;100696.31;10527221;28;20055;-77
2023/01/05 00:52:06;;;;;;;3.55;1.85;;;;;;;-8.92;87.40;100678.53;10526988;28;20066;-77
2023/01/05 00:57:13;;;;;;;5.60;2.20;;;;;;;-8.90;87.53;100687.19;10495820;28;20124;-77
2023/01/05 01:02:15;;;;;;;5.72;2.03;;;;;;;-8.92;87.67;100687.34;10469250;28;20048;-76
2023/01/05 01:07:18;;;;;;;3.33;2.20;;;;;;;-8.94;87.76;100676.03;10508333;28;20044;-77
2023/01/05 01:12:20;;;;;;;5.80;2.53;;;;;;;-8.97;87.75;100681.66;10480144;28;20041;-75
2023/01/05 01:17:22;;;;;;;3.88;2.10;;;;;;;-8.98;87.36;100687.97;10482192;28;20067;-77
2023/01/05 01:22:24;;;;;;;4.43;2.15;;;;;;;-9.05;87.04;100686.06;10507417;28;20033;-75
2023/01/05 01:27:30;;;;;;;4.03;2.03;;;;;;;-9.11;87.42;100671.56;10514296;28;20036;-76
2023/01/05 01:32:32;;;;;;;1.17;1.08;;;;;;;-9.12;87.25;100676.03;10486332;28;20502;-76
2023/01/05 01:37:34;;;;;;;4.05;2.22;;;;;;;-9.22;88.11;100675.28;10473118;28;20049;-76
2023/01/05 01:42:38;;;;;;;3.25;1.92;;;;;;;-9.30;87.97;100677.88;10485549;28;20056;-76
2023/01/05 01:47:56;;;;;;;4.72;2.35;;;;;;;-9.40;87.68;100673.63;10471937;28;20044;-75
2023/01/05 01:53:03;;;;;;;5.55;1.77;;;;;;;-9.40;87.59;100684.25;10492276;28;20059;-77
2023/01/05 01:58:12;;;;;;;4.82;2.83;;;;;;;-9.44;87.89;100684.53;10504359;28;20036;-76
2023/01/05 02:03:15;;;;;;;6.88;2.63;;;;;;;-9.51;88.00;100675.53;10477425;28;20041;-76
2023/01/05 02:08:24;;;;;;;2.92;1.70;;;;;;;-9.43;88.41;100680.06;10493024;28;20538;-77
2023/01/05 02:13:46;;;;;;;4.18;2.30;;;;;;;-9.40;88.76;100681.59;10509735;28;20037;-77
2023/01/05 02:19:07;;;;;;;3.78;2.00;;;;;;;-9.39;88.64;100677.94;10507064;28;20045;-76
2023/01/05 02:24:24;;;;;;;3.53;2.00;;;;;;;-9.38;88.65;100677.78;10526367;28;20044;-77
2023/01/05 02:29:31;;;;;;;4.28;2.00;;;;;;;-9.34;88.00;100657.09;10500990;28;20040;-76
2023/01/05 02:34:59;;;;;;;5.38;2.20;;;;;;;-9.30;88.49;100661.94;10503489;28;20045;-76
2023/01/05 02:40:07;;;;;;;4.63;2.10;;;;;;;-9.26;87.93;100662.47;10486472;28;20049;-75
2023/01/05 02:45:15;;;;;;;4.50;1.98;;;;;;;-9.17;88.03;100662.38;10471632;28;20048;-76
2023/01/05 02:50:32;;;;;;;6.13;2.05;;;;;;;-9.08;88.09;100657.97;10499822;28;20044;-76
2023/01/05 02:55:50;;;;;;;3.15;1.80;;;;;;;-9.06;88.10;100663.13;10474795;28;20045;-76
2023/01/05 03:01:00;;;;;;;4.67;1.50;;;;;;;-9.05;87.47;100665.63;10522868;28;20044;-77
2023/01/05 03:06:55;;;;;;;3.25;1.65;;;;;;;-9.04;87.07;100666.47;10471949;28;20044;-77
2023/01/05 03:17:49;;;;;;;3.78;2.10;;;;;;;-8.96;86.17;100672.69;10466106;28;20037;-77
2023/01/05 03:39:50;;;;;;;4.18;1.60;;;;;;;-8.91;86.75;100666.91;10485749;28;20475;-76
2023/01/05 03:44:52;;;;;;;3.15;1.25;;;;;;;-8.92;86.39;100663.41;10518257;28;20040;-76
2023/01/05 03:49:56;;;;;;;2.78;1.63;;;;;;;-8.90;86.86;100673.88;10514312;28;20072;-76
2023/01/05 03:54:58;;;;;;;3.90;1.88;;;;;;;-8.87;87.04;100668.25;10509715;28;20044;-76
2023/01/05 04:00:02;;;;;;;4.13;1.13;;;;;;;-8.98;86.60;100668.53;10504290;28;20056;-75
2023/01/05 04:05:09;;;;;;;2.05;1.30;;;;;;;-9.02;86.80;100668.00;10528114;28;20040;-75
2023/01/05 04:10:12;;;;;;;3.10;1.60;;;;;;;-9.03;86.11;100666.31;10504124;28;20044;-76
2023/01/05 04:15:17;;;;;;;4.47;1.75;;;;;;;-9.05;86.23;100665.63;10501577;28;20044;-77
2023/01/05 04:20:20;;;;;;;5.07;1.70;;;;;;;-9.02;85.42;100657.38;10491009;28;20039;-77
2023/01/05 04:25:23;;;;;;;5.45;1.98;;;;;;;-9.00;84.77;100650.06;10505068;28;20044;-76
2023/01/05 04:30:29;;;;;;;3.47;1.92;;;;;;;-9.03;83.92;100653.00;10499816;28;20048;-76
2023/01/05 04:35:33;;;;;;;4.13;1.80;;;;;;;-9.05;83.86;100644.34;10510170;28;20055;-77
2023/01/05 04:40:35;;;;;;;2.53;1.25;;;;;;;-9.05;83.62;100641.69;10525098;28;20044;-76
2023/01/05 04:45:38;;;;;;;4.38;1.40;;;;;;;-9.07;83.60;100651.66;10497429;28;20040;-76
2023/01/05 04:50:43;;;;;;;5.18;1.65;;;;;;;-9.09;83.20;100648.31;10496010;28;20059;-76
2023/01/05 04:55:46;;;;;;;2.55;1.10;;;;;;;-9.10;82.49;100645.81;10526004;28;20036;-76
2023/01/05 05:00:49;;;;;;;4.28;1.75;;;;;;;-9.11;82.24;100639.66;10494867;28;20036;-76
2023/01/05 05:05:56;;;;;;;4.77;1.47;;;;;;;-9.17;81.37;100648.28;10488829;28;20052;-77
2023/01/05 05:11:02;;;;;;;3.95;1.50;;;;;;;-9.19;81.77;100636.97;10489933;28;20051;-77
2023/01/05 05:16:08;;;;;;;4.90;2.00;;;;;;;-9.21;81.81;100642.41;10488469;28;20040;-76
2023/01/05 05:21:11;;;;;;;1.10;0.90;;;;;;;-9.16;81.52;100634.00;10521030;28;20039;-77
2023/01/05 05:26:15;;;;;;;3.53;1.88;;;;;;;-9.15;82.31;100648.94;10489108;28;20078;-77
2023/01/05 05:31:20;;;;;;;3.83;1.92;;;;;;;-9.14;82.59;100661.25;10475384;28;20045;-75
2023/01/05 05:36:22;;;;;;;4.65;1.75;;;;;;;-9.15;84.50;100655.09;10521696;28;20040;-77
2023/01/05 05:41:24;;;;;;;4.35;1.70;;;;;;;-9.13;84.81;100654.94;10522876;28;20032;-77
2023/01/05 05:46:27;;;;;;;5.18;1.73;;;;;;;-9.08;85.67;100644.66;10516983;28;20037;-76
2023/01/05 05:51:31;;;;;;;4.20;1.88;;;;;;;-9.07;85.50;100651.66;10501076;28;20052;-77
2023/01/05 05:56:33;;;;;;;5.10;1.95;;;;;;;-9.09;86.24;100655.47;10513303;28;20040;-75
2023/01/05 06:01:35;;;;;;;3.40;1.63;;;;;;;-9.12;86.12;100638.00;10525258;28;20033;-77
2023/01/05 06:06:38;;;;;;;4.50;1.85;;;;;;;-9.12;86.55;100648.63;10508972;28;20075;-76
2023/01/05 06:11:41;;;;;;;3.35;1.98;;;;;;;-9.14;86.45;100653.28;10513574;28;20048;-76
2023/01/05 06:16:44;;;;;;;4.57;1.90;;;;;;;-9.09;86.62;100648.31;10512290;28;20052;-76
2023/01/05 06:21:46;;;;;;;3.40;2.13;;;;;;;-8.99;86.87;100658.88;10524279;28;20041;-75
2023/01/05 06:26:49;;;;;;;2.58;1.40;;;;;;;-8.97;86.91;100654.25;10532800;28;20159;-75
2023/01/05 06:31:51;;;;;;;2.25;1.20;;;;;;;-8.90;87.15;100647.31;10519363;28;20044;-76
2023/01/05 06:36:55;;;;;;;3.28;1.55;;;;;;;-8.90;87.53;100653.44;10518901;28;20392;-77
2023/01/05 06:41:57;;;;;;;3.63;1.67;;;;;;;-8.82;87.66;100661.50;10526879;28;20044;-77
2023/01/05 06:47:00;;;;;;;2.90;1.38;;;;;;;-8.86;88.28;100661.94;10527047;28;20047;-76
2023/01/05 06:52:02;;;;;;;2.15;1.10;;;;;;;-8.88;87.85;100659.44;10526401;28;20450;-76
2023/01/05 06:57:05;;;;;;;1.88;0.95;;;;;;;-8.89;88.39;100665.75;10510601;28;20414;-74
2023/01/05 07:02:17;;;;;;;4.05;1.27;;;;;;;-8.90;88.40;100685.34;10503217;28;20040;-75
2023/01/05 07:07:19;;;;;;;2.67;1.08;;;;;;;-8.95;88.85;100679.66;10496101;28;20161;-75
2023/01/05 07:12:22;;;;;;;1.30;0.88;;;;;;;-8.99;89.13;100680.97;10531099;28;20150;-75
2023/01/05 07:17:25;;;;;;;2.58;1.27;;;;;;;-8.99;89.34;100691.59;10517890;28;20041;-75
2023/01/05 07:22:29;;;;;;;1.70;1.40;;;;;;;-8.98;89.15;100687.97;10490746;28;20048;-74
2023/01/05 07:27:31;;;;;;;5.43;1.63;;;;;;;-9.00;89.29;100705.06;10509562;28;20511;-74
2023/01/05 07:32:34;;;;;;;2.97;1.58;;;;;;;-9.07;88.97;100704.81;10505441;28;20040;-76
2023/01/05 07:37:36;;;;;;;2.05;1.08;;;;;;;-9.13;88.45;100708.09;10522308;28;20410;-76
2023/01/05 07:42:38;;;;;;;1.02;0.82;;;;;;;-9.19;88.34;100727.31;10529170;28;20036;-75
2023/01/05 07:47:40;;;;;;;1.13;0.88;;;;;;;-9.22;88.13;100724.94;10525239;28;20047;-76
2023/01/05 07:52:42;;;;;;;3.20;1.63;;;;;;;-9.31;87.85;100732.00;10504404;28;20053;-75
2023/01/05 07:57:46;;;;;;;5.13;1.75;;;;;;;-9.36;87.71;100736.09;10525387;28;20036;-77
2023/01/05 08:02:48;;;;;;;0.90;0.73;;;;;;;-9.42;87.33;100735.69;10516121;28;20033;-76
2023/01/05 08:07:50;;;;;;;2.13;0.52;;;;;;;-9.45;85.82;100738.66;10525892;28;20040;-76
2023/01/05 08:18:13;;;;;;;4.32;2.30;;;;;;;-9.47;85.80;100769.84;10526578;28;20059;-75
2023/01/05 08:23:16;;;;;;;1.40;0.85;;;;;;;-9.52;85.34;100747.38;10522549;28;20036;-76
2023/01/05 08:28:18;;;;;;;3.50;1.30;;;;;;;-9.53;84.77;100751.03;10509703;28;20029;-74
2023/01/05 08:33:25;;;;;;;2.28;0.93;;;;;;;-9.57;83.81;100763.75;10519344;28;20534;-76
2023/01/05 08:38:27;;;;;;;4.82;2.60;;;;;;;-9.53;83.43;100775.78;10505482;28;20052;-74
2023/01/05 08:43:30;;;;;;;1.42;1.05;;;;;;;-9.52;83.94;100782.75;10509421;28;20617;-75
2023/01/05 08:48:32;;;;;;;6.03;1.50;;;;;;;-9.53;84.75;100788.22;10511026;28;20040;-74
2023/01/05 08:53:34;;;;;;;2.33;1.85;;;;;;;-9.60;84.65;100790.59;10514431;28;20080;-73
2023/01/05 08:58:37;;;;;;;6.35;2.05;;;;;;;-9.62;84.29;100789.91;10511552;28;20048;-73
2023/01/05 09:03:39;;;;;;;1.50;1.05;;;;;;;-9.65;84.34;100790.22;10525677;28;21399;-72
2023/01/05 09:08:43;;;;;;;3.95;1.50;;;;;;;-9.71;84.41;100790.81;10509000;28;20059;-73
2023/01/05 09:13:50;;;;;;;2.70;0.82;;;;;;;-9.69;83.98;100799.47;10493737;28;20049;-73
2023/01/05 09:18:52;;;;;;;3.78;1.83;;;;;;;-9.78;84.46;100798.50;10519942;28;20043;-73
2023/01/05 09:23:54;;;;;;;3.58;1.77;;;;;;;-9.89;84.30;100821.75;10513926;28;20064;-73
2023/01/05 09:28:56;;;;;;;4.22;1.67;;;;;;;-9.96;84.27;100823.31;10511960;28;20041;-73
2023/01/05 09:33:58;;;;;;;3.15;1.60;;;;;;;-9.96;84.78;100820.66;10503575;28;20037;-74
2023/01/05 09:39:03;;;;;;;4.30;1.80;;;;;;;-9.94;84.73;100818.69;10520386;28;20553;-74
2023/01/05 09:44:24;;;;;;;1.42;1.30;;;;;;;-9.99;84.02;100826.25;10487035;28;20055;-73
2023/01/05 09:49:27;;;;;;;1.60;1.13;;;;;;;-9.99;85.49;100842.19;10516975;28;20052;-73
2023/01/05 09:54:31;;;;;;;2.28;1.33;;;;;;;-10.02;85.32;100842.47;10511705;28;20510;-73
2023/01/05 09:59:36;;;;;;;3.95;2.08;;;;;;;-10.15;84.81;100848.09;10494416;28;20127;-74
2023/01/05 10:04:40;;;;;;;2.78;1.38;;;;;;;-10.28;82.50;100874.94;10535735;28;20047;-73
2023/01/05 10:09:43;;;;;;;2.33;1.42;;;;;;;-10.31;81.99;100895.59;10504572;28;20048;-74
2023/01/05 10:14:49;;;;;;;3.88;1.80;;;;;;;-10.35;81.76;100857.91;10514061;28;20047;-74
2023/01/05 10:19:52;;;;;;;3.85;1.67;;;;;;;-10.38;82.28;100872.31;10516134;28;20052;-74
2023/01/05 10:24:57;;;;;;;5.57;1.08;;;;;;;-10.38;83.59;100890.03;10520832;28;20066;-73
2023/01/05 10:30:06;;;;;;;2.05;1.20;;;;;;;-10.42;84.35;100870.03;10534595;28;20037;-73
2023/01/05 10:35:38;;;;;;;1.85;0.98;;;;;;;-10.42;84.50;100860.28;10529231;28;20043;-74
2023/01/05 10:41:07;;;;;;;1.00;0.90;;;;;;;-10.36;83.74;100886.25;10507749;28;20048;-74
2023/01/05 10:46:11;;;;;;;5.63;2.20;;;;;;;-10.33;84.16;100879.00;10503928;28;20051;-72
2023/01/05 10:51:13;;;;;;;3.58;1.98;;;;;;;-10.24;85.04;100871.00;10532675;28;20064;-73
2023/01/05 10:56:22;;;;;;;2.25;1.70;;;;;;;-10.22;85.11;100879.69;10528491;28;20048;-73
2023/01/05 11:01:28;;;;;;;4.65;1.77;;;;;;;-10.21;85.23;100888.50;10521751;28;20053;-72
2023/01/05 11:06:32;;;;;;;2.40;0.98;;;;;;;-10.16;85.62;100873.78;10513369;28;20503;-73
2023/01/05 11:11:35;;;;;;;3.97;0.98;;;;;;;-10.13;84.91;100886.75;10505855;28;20040;-74
2023/01/05 11:16:38;;;;;;;2.47;0.95;;;;;;;-10.16;84.61;100886.22;10519625;28;20134;-73
2023/01/05 11:21:44;;;;;;;0.60;0.60;;;;;;;-10.25;84.66;100887.91;10521182;28;20044;-76
2023/01/05 11:26:51;;;;;;;4.25;1.88;;;;;;;-10.29;84.59;100899.78;10532411;28;20048;-72
2023/01/05 11:32:04;;;;;;;3.35;1.13;;;;;;;-10.29;84.16;100888.34;10522143;28;20055;-78
2023/01/05 11:37:10;;;;;;;4.07;2.10;;;;;;;-10.29;83.35;100891.00;10524893;28;20507;-71
2023/01/05 11:42:33;;;;;;;3.15;1.35;;;;;;;-10.30;83.41;100892.81;10528948;28;20383;-72
2023/01/05 11:47:38;;;;;;;1.85;0.90;;;;;;;-10.34;83.07;100894.06;10527166;28;20429;-72
2023/01/05 11:52:46;;;;;;;6.97;2.10;;;;;;;-10.38;83.80;100909.44;10502890;28;20060;-73
2023/01/05 11:57:50;;;;;;;1.02;0.90;;;;;;;-10.38;83.24;100922.69;10505075;28;20033;-72
2023/01/05 12:03:33;;;;;;;3.97;1.77;;;;;;;-10.41;84.01;100906.22;10502972;28;20123;-75
2023/01/05 12:08:38;;;;;;;1.85;1.10;;;;;;;-10.38;84.62;100913.91;10496837;28;20139;-82
2023/01/05 12:14:05;;;;;;;2.80;1.60;;;;;;;-10.35;84.47;100910.97;10510112;28;20051;-76
2023/01/05 12:19:29;;;;;;;1.20;1.08;;;;;;;-10.36;84.68;100925.22;10523297;28;20059;-80
2023/01/05 12:24:44;;;;;;;3.25;1.63;;;;;;;-10.40;84.71;100922.00;10507554;28;20060;-77
2023/01/05 12:30:08;;;;;;;3.90;2.00;;;;;;;-10.38;85.22;100933.31;10530301;28;20041;-75
2023/01/05 12:35:30;;;;;;;1.67;0.98;;;;;;;-10.26;84.90;100941.13;10476101;28;20045;-75
2023/01/05 12:40:41;;;;;;;2.30;1.63;;;;;;;-10.29;85.64;100965.28;10501975;28;20052;-75
2023/01/05 12:46:08;;;;;;;1.75;1.10;;;;;;;-10.33;85.66;100947.97;10487165;28;20060;-75
2023/01/05 12:51:34;;;;;;;4.18;1.73;;;;;;;-10.31;86.10;100944.19;10517359;28;20051;-75
2023/01/05 12:56:40;;;;;;;0.30;0.30;;;;;;;-10.27;86.21;100947.41;10526971;28;20059;-75
2023/01/05 13:02:05;;;;;;;3.78;1.48;;;;;;;-10.20;86.67;100949.34;10466523;28;20041;-76
2023/01/05 13:07:19;;;;;;;3.78;1.88;;;;;;;-10.09;86.52;100959.78;10506359;28;20037;-76
2023/01/05 13:12:22;;;;;;;3.35;1.13;;;;;;;-10.05;86.34;100961.22;10500496;28;20040;-75
2023/01/05 13:17:33;;;;;;;2.70;1.63;;;;;;;-10.04;86.95;100976.16;10530159;28;20063;-76
2023/01/05 13:22:38;;;;;;;1.48;1.15;;;;;;;-10.06;86.63;100970.16;10527223;28;20033;-75
2023/01/05 13:28:05;;;;;;;4.30;1.77;;;;;;;-10.10;86.48;100971.38;10526994;28;20045;-74
2023/01/05 13:33:28;;;;;;;1.60;1.08;;;;;;;-10.11;87.03;100979.50;10512675;28;20049;-76
2023/01/05 13:39:07;;;;;;;3.90;1.58;;;;;;;-10.10;86.76;100982.00;10512184;28;20040;-77
2023/01/05 13:44:40;;;;;;;2.78;1.40;;;;;;;-10.09;86.83;100999.59;10515858;28;20043;-76
2023/01/05 13:50:14;;;;;;;1.63;1.08;;;;;;;-10.06;85.96;100993.19;10527590;28;20045;-76
2023/01/05 13:55:19;;;;;;;1.05;0.85;;;;;;;-10.06;86.10;100994.03;10526237;28;20039;-75
2023/01/05 14:00:28;;;;;;;3.42;1.20;;;;;;;-10.02;86.15;100996.41;10533543;28;20064;-74
2023/01/05 14:06:01;;;;;;;4.45;1.65;;;;;;;-10.05;85.40;101006.31;10517890;28;20503;-73
2023/01/05 14:11:22;;;;;;;1.10;1.00;;;;;;;-10.01;85.44;101017.50;10516229;28;20064;-73
2023/01/05 14:16:34;;;;;;;2.20;1.52;;;;;;;-10.05;85.34;101022.25;10533044;28;20047;-73
2023/01/05 14:22:22;;;;;;;1.38;0.80;;;;;;;-10.05;85.88;101011.63;10528382;28;20056;-75
2023/01/05 14:27:29;;;;;;;1.17;0.73;;;;;;;-10.03;87.06;101022.09;10530879;28;20048;-74
2023/01/05 14:32:35;;;;;;;0.70;0.63;;;;;;;-10.05;86.57;101014.28;10532711;28;20052;-74
2023/01/05 14:37:51;;;;;;;1.48;0.90;;;;;;;-9.99;87.15;101031.47;10533179;28;20614;-75
2023/01/05 14:42:59;;;;;;;1.50;1.40;;;;;;;-9.98;87.69;101030.50;10504095;28;20039;-76
2023/01/05 14:48:21;;;;;;;16.17;1.17;;;;;;;-9.92;88.12;101040.53;10489367;28;20051;-74
2023/01/05 14:53:43;;;;;;;4.03;1.48;;;;;;;-9.89;87.98;101042.06;10492380;28;20498;-77
2023/01/05 14:58:47;;;;;;;5.65;2.38;;;;;;;-9.92;87.61;101063.59;10505792;28;20407;-77
2023/01/05 15:04:17;;;;;;;0.68;0.63;;;;;;;-9.95;87.99;101059.41;10486368;28;20044;-77
2023/01/05 15:09:23;;;;;;;3.88;2.22;;;;;;;-9.93;87.43;101068.06;10457026;28;20028;-76
2023/01/05 15:14:37;;;;;;;1.00;0.65;;;;;;;-9.96;87.28;101071.00;10493479;28;20045;-79
2023/01/05 15:20:16;;;;;;;4.47;2.10;;;;;;;-9.92;87.18;101077.69;10502021;28;20056;-84
2023/01/05 15:25:50;;;;;;;3.97;1.75;;;;;;;-9.92;86.63;101079.50;10500253;28;20518;-75
2023/01/05 15:31:03;;;;;;;1.77;1.02;;;;;;;-9.94;87.42;101078.81;10466682;28;20095;-76
2023/01/05 15:36:15;;;;;;;4.57;2.40;;;;;;;-9.96;86.62;101092.22;10503106;28;20040;-74
2023/01/05 15:41:19;;;;;;;5.15;1.60;;;;;;;-9.93;87.02;101107.03;10456099;28;20141;-74
2023/01/05 15:46:30;;;;;;;5.88;2.38;;;;;;;-9.96;86.29;101126.75;10462198;28;20033;-76
2023/01/05 15:51:32;;;;;;;3.47;1.70;;;;;;;-9.99;85.55;101134.97;10461196;28;20052;-74
2023/01/05 15:56:40;;;;;;;1.05;0.82;;;;;;;-10.05;85.97;101139.03;10485932;28;20052;-75
2023/01/05 16:01:42;;;;;;;1.70;1.45;;;;;;;-10.06;86.19;101150.63;10459157;28;20040;-73
2023/01/05 16:06:47;;;;;;;1.45;1.35;;;;;;;-10.08;86.30;101151.69;10485710;28;20049;-73
2023/01/05 16:11:53;;;;;;;4.57;2.22;;;;;;;-10.11;86.03;101144.84;10466053;28;20060;-74
2023/01/05 16:17:14;;;;;;;0.75;0.75;;;;;;;-10.09;87.01;101152.69;10485132;28;20037;-73
2023/01/05 16:22:19;;;;;;;4.25;1.65;;;;;;;-10.06;86.72;101158.59;10472152;28;20048;-73
2023/01/05 16:27:21;;;;;;;3.47;2.10;;;;;;;-10.06;87.06;101177.16;10492829;28;20044;-74
2023/01/05 16:32:30;;;;;;;3.55;1.70;;;;;;;-10.07;87.45;101171.97;10488657;28;20039;-73
2023/01/05 16:37:32;;;;;;;8.38;2.88;;;;;;;-10.12;87.10;101176.84;10497900;28;20495;-74
2023/01/05 16:42:44;;;;;;;1.30;1.10;;;;;;;-10.10;87.33;101188.16;10527943;28;20055;-73
2023/01/05 16:47:46;;;;;;;4.97;1.77;;;;;;;-10.13;87.68;101194.56;10494486;28;20055;-73
2023/01/05 16:52:55;;;;;;;0.98;0.95;;;;;;;-10.14;88.41;101198.22;10502340;28;20052;-74
2023/01/05 16:57:58;;;;;;;2.38;1.30;;;;;;;-10.15;88.43;101209.78;10509917;28;20036;-73
2023/01/05 17:03:03;;;;;;;5.13;1.77;;;;;;;-10.39;88.06;101219.91;10522663;28;20036;-72
2023/01/05 17:08:05;;;;;;;3.25;1.60;;;;;;;-10.72;88.16;101229.78;10492480;28;20036;-73
2023/01/05 17:13:18;;;;;;;3.53;1.83;;;;;;;-10.95;87.52;101226.38;10527031;28;20051;-72
2023/01/05 17:18:22;;;;;;;5.45;2.17;;;;;;;-11.00;87.35;101247.13;10487173;28;20043;-72
2023/01/05 17:23:31;;;;;;;4.43;2.25;;;;;;;-11.07;86.86;101234.53;10472559;28;20127;-72
2023/01/05 17:28:33;;;;;;;5.22;2.03;;;;;;;-11.12;86.62;101252.59;10488399;28;20127;-73
2023/01/05 17:33:35;;;;;;;6.82;2.40;;;;;;;-11.22;86.85;101263.13;10504250;28;20067;-74
2023/01/05 17:38:38;;;;;;;4.65;2.00;;;;;;;-11.19;86.79;101254.06;10500085;28;20430;-73
2023/01/05 17:43:40;;;;;;;7.32;2.38;;;;;;;-11.16;86.87;101267.06;10526140;28;20077;-72
2023/01/05 17:48:42;;;;;;;1.45;1.35;;;;;;;-11.09;86.67;101289.47;10516160;28;20048;-74
2023/01/05 17:53:45;;;;;;;4.07;1.45;;;;;;;-10.91;86.79;101282.66;10528730;28;20047;-75
2023/01/05 17:58:47;;;;;;;0.35;0.35;;;;;;;-10.69;87.37;101282.53;10525561;28;20047;-75
2023/01/05 18:03:50;;;;;;;1.23;1.13;;;;;;;-10.58;87.65;101283.47;10496055;28;20041;-74
2023/01/05 18:08:52;;;;;;;3.60;2.30;;;;;;;-10.59;87.06;101305.63;10484282;28;20056;-75
2023/01/05 18:13:55;;;;;;;3.25;1.98;;;;;;;-10.61;87.01;101294.28;10507237;28;20053;-73
2023/01/05 18:18:57;;;;;;;4.38;2.00;;;;;;;-10.62;85.74;101295.28;10521628;28;20131;-73
2023/01/05 18:24:00;;;;;;;4.57;2.45;;;;;;;-10.65;85.28;101302.50;10498035;28;20059;-75
2023/01/05 18:29:03;;;;;;;4.93;1.85;;;;;;;-10.65;84.23;101313.13;10507055;28;20040;-74
2023/01/05 18:34:06;;;;;;;4.45;2.33;;;;;;;-10.62;84.32;101322.63;10518458;28;20036;-74
2023/01/05 18:39:08;;;;;;;4.22;1.38;;;;;;;-10.62;84.91;101330.59;10476232;28;20041;-74
2023/01/05 18:44:11;;;;;;;0.68;0.68;;;;;;;-10.61;84.52;101332.25;10513450;28;20040;-73
2023/01/05 18:49:14;;;;;;;1.38;0.85;;;;;;;-10.57;84.80;101327.56;10496671;28;20044;-74
2023/01/05 18:54:16;;;;;;;1.65;0.82;;;;;;;-10.55;85.27;101334.44;10507155;28;20033;-73
2023/01/05 18:59:19;;;;;;;4.10;1.30;;;;;;;-10.57;85.33;101333.72;10558430;28;20503;-73
2023/01/05 19:04:22;;;;;;;2.67;1.67;;;;;;;-10.55;85.50;101341.53;10513351;28;20167;-74
2023/01/05 19:09:25;;;;;;;4.80;1.55;;;;;;;-10.61;85.45;101347.34;10513105;28;20028;-75
2023/01/05 19:14:28;;;;;;;1.58;1.15;;;;;;;-10.59;85.58;101348.03;10525095;28;20573;-73
2023/01/05 19:19:31;;;;;;;1.75;0.95;;;;;;;-10.54;86.08;101343.22;10526108;28;20427;-74
2023/01/05 19:24:34;;;;;;;2.72;1.45;;;;;;;-10.46;86.23;101335.44;10489533;28;20044;-74
2023/01/05 19:29:36;;;;;;;0.45;0.45;;;;;;;-10.39;85.69;101339.28;10488261;28;20530;-74
2023/01/05 19:34:40;;;;;;;2.05;1.05;;;;;;;-10.43;85.91;101346.63;10511802;28;20041;-74
2023/01/05 19:39:42;;;;;;;1.00;0.88;;;;;;;-10.41;85.86;101349.19;10511482;28;20411;-73
2023/01/05 19:44:46;;;;;;;5.18;1.63;;;;;;;-10.36;85.77;101360.25;10488749;28;20040;-74
2023/01/05 19:49:49;;;;;;;1.55;1.45;;;;;;;-10.27;85.87;101362.13;10471509;28;20048;-74
2023/01/05 19:54:51;;;;;;;2.00;1.08;;;;;;;-10.22;86.34;101369.72;10488766;28;20057;-74
2023/01/05 19:59:53;;;;;;;3.13;1.20;;;;;;;-10.18;86.15;101377.25;10512405;28;20056;-75
2023/01/05 20:04:55;;;;;;;1.27;1.10;;;;;;;-10.16;86.07;101385.06;10525602;28;20446;-74
2023/01/05 20:09:58;;;;;;;1.13;0.73;;;;;;;-10.11;85.94;101391.66;10492462;28;20052;-74
2023/01/05 20:15:00;;;;;;;5.03;1.20;;;;;;;-10.06;86.54;101389.50;10488080;28;20045;-74
2023/01/05 20:20:02;;;;;;;0.82;0.80;;;;;;;-10.02;86.10;101407.81;10489023;28;20069;-74
2023/01/05 20:25:06;;;;;;;1.20;0.90;;;;;;;-10.02;86.74;101407.81;10488066;28;20063;-74
2023/01/05 20:30:09;;;;;;;2.10;1.17;;;;;;;-9.98;86.92;101422.50;10487602;28;20049;-74
2023/01/05 20:35:12;;;;;;;3.20;1.58;;;;;;;-9.93;86.68;101418.47;10487598;28;20049;-73
2023/01/05 20:40:15;;;;;;;0.95;0.90;;;;;;;-9.89;86.39;101419.03;10485922;28;20055;-74
2023/01/05 20:45:17;;;;;;;2.28;1.10;;;;;;;-9.80;87.31;101428.91;10495607;28;20051;-72
2023/01/05 20:50:19;;;;;;;2.35;0.80;;;;;;;-9.80;86.70;101432.41;10528886;28;20036;-74
2023/01/05 20:55:22;;;;;;;3.00;1.05;;;;;;;-9.79;87.02;101428.78;10515230;28;20045;-73
2023/01/05 21:00:24;;;;;;;2.33;1.00;;;;;;;-9.71;87.17;101443.22;10515087;28;20684;-74
2023/01/05 21:05:26;;;;;;;8.15;1.85;;;;;;;-9.62;86.90;101435.31;10526554;28;20515;-73
2023/01/05 21:10:28;;;;;;;4.78;1.88;;;;;;;-9.55;87.97;101443.56;10516205;28;20503;-73
2023/01/05 21:15:31;;;;;;;4.75;1.95;;;;;;;-9.55;87.74;101444.41;10496678;28;20044;-74
2023/01/05 21:20:34;;;;;;;2.50;1.27;;;;;;;-9.54;87.56;101456.75;10507345;28;20545;-74
2023/01/05 21:25:41;;;;;;;5.10;1.85;;;;;;;-9.52;87.79;101461.94;10524917;28;20044;-74
2023/01/05 21:30:47;;;;;;;4.35;2.05;;;;;;;-9.52;88.01;101456.63;10524721;28;20510;-75
2023/01/05 21:35:53;;;;;;;2.70;1.67;;;;;;;-9.63;87.79;101459.34;10532195;28;20048;-74
2023/01/05 21:41:09;;;;;;;7.18;2.28;;;;;;;-9.84;87.68;101478.78;10518367;28;20044;-74
2023/01/05 21:46:11;;;;;;;7.43;2.75;;;;;;;-10.00;86.93;101469.56;10524420;28;20419;-73
2023/01/05 21:56:38;;;;;;;5.25;2.78;;;;;;;-10.45;85.32;101480.38;10522839;28;20033;-72
2023/01/05 22:01:44;;;;;;;3.88;2.53;;;;;;;-10.53;85.70;101486.31;10524506;28;20051;-74
2023/01/05 22:06:47;;;;;;;6.13;2.33;;;;;;;-10.55;85.39;101484.75;10514406;28;20040;-73
2023/01/05 22:11:50;;;;;;;4.72;2.10;;;;;;;-10.48;85.30;101480.63;10532330;28;20043;-73
2023/01/05 22:16:53;;;;;;;4.60;2.45;;;;;;;-10.61;86.14;101480.75;10524631;28;20037;-73
2023/01/05 22:21:59;;;;;;;6.53;2.67;;;;;;;-10.54;85.96;101486.44;10529539;28;20040;-73
2023/01/05 22:27:02;;;;;;;5.78;2.20;;;;;;;-10.52;86.12;101500.41;10532744;28;20033;-73
2023/01/05 22:32:05;;;;;;;4.00;2.30;;;;;;;-10.45;85.79;101496.28;10533352;28;20040;-73
2023/01/05 22:37:11;;;;;;;9.45;2.80;;;;;;;-10.33;86.85;101495.28;10530117;28;20053;-74
2023/01/05 22:42:13;;;;;;;6.75;3.63;;;;;;;-10.33;85.91;101499.75;10497287;28;20028;-73
2023/01/05 22:47:16;;;;;;;8.77;3.72;;;;;;;-10.47;85.54;101511.47;10516976;28;20385;-73
2023/01/05 22:52:22;;;;;;;7.35;3.97;;;;;;;-10.46;86.62;101521.13;10520034;28;20345;-72
2023/01/05 22:57:50;;;;;;;7.88;3.60;;;;;;;-10.57;86.24;101503.44;10524607;28;20044;-74
2023/01/05 23:02:53;;;;;;;10.65;4.53;;;;;;;-10.55;85.90;101506.81;10523103;28;20109;-74
2023/01/05 23:07:56;;;;;;;8.23;3.70;;;;;;;-10.56;85.51;101530.81;10525114;28;20482;-74
2023/01/05 23:13:02;;;;;;;9.07;3.95;;;;;;;-10.51;85.83;101521.50;10519479;28;20564;-74
2023/01/05 23:18:05;;;;;;;10.32;4.93;;;;;;;-10.64;85.45;101536.69;10525284;28;20044;-74
2023/01/05 23:23:07;;;;;;;10.93;4.53;;;;;;;-10.56;85.69;101544.06;10529340;28;20029;-75
2023/01/05 23:28:10;;;;;;;10.18;4.10;;;;;;;-10.51;85.78;101531.25;10526679;28;20581;-75
2023/01/05 23:33:14;;;;;;;10.35;4.45;;;;;;;-10.51;85.88;101544.53;10528284;28;20423;-76
2023/01/05 23:38:16;;;;;;;7.28;3.50;;;;;;;-10.56;85.57;101546.72;10526438;28;20041;-77
2023/01/05 23:43:20;;;;;;;7.85;3.90;;;;;;;-10.55;85.84;101554.53;10513055;28;20057;-76
2023/01/05 23:48:23;;;;;;;7.90;3.90;;;;;;;-10.63;85.55;101566.72;10529430;28;20040;-74
2023/01/05 23:53:25;;;;;;;8.15;3.90;;;;;;;-10.56;85.57;101574.06;10508846;28;20036;-76
2023/01/05 23:58:28;;;;;;;7.78;3.80;;;;;;;-10.47;85.26;101580.44;10527504;28;20414;-76
